createdAt,value
2018-06-16T00:00:06.214Z,80.20
2018-06-16T00:02:35.334Z,80.00
2018-06-16T00:05:04.246Z,80.60
2018-06-16T00:07:33.157Z,81.30
2018-06-16T00:10:02.031Z,81.20
2018-06-16T00:12:30.907Z,80.90
2018-06-16T00:14:59.794Z,81.10
2018-06-16T00:17:28.783Z,79.90
2018-06-16T00:19:57.722Z,81.50
2018-06-16T00:22:26.803Z,81.40
2018-06-16T00:25:00.533Z,81.70
2018-06-16T00:27:30.144Z,80.90
2018-06-16T00:29:59.037Z,81.10
2018-06-16T00:32:27.924Z,82.00
2018-06-16T00:34:56.815Z,82.10
2018-06-16T00:37:25.703Z,82.40
2018-06-16T00:42:23.095Z,83.10
2018-06-16T00:44:51.972Z,83.30
2018-06-16T00:47:20.854Z,83.10
2018-06-16T00:49:49.743Z,83.40
2018-06-16T00:52:18.635Z,83.70
2018-06-16T00:54:47.525Z,85.00
2018-06-16T00:57:52.328Z,84.50
2018-06-16T01:00:21.539Z,83.90
2018-06-16T01:02:50.453Z,83.80
2018-06-16T01:05:19.350Z,83.80
2018-06-16T01:07:48.258Z,83.50
2018-06-16T01:10:17.138Z,84.80
2018-06-16T01:12:46.022Z,85.20
2018-06-16T01:15:14.930Z,86.40
2018-06-16T01:17:43.798Z,86.40
2018-06-16T01:20:12.699Z,86.40
2018-06-16T01:22:41.588Z,85.80
2018-06-16T01:25:10.525Z,85.20
2018-06-16T01:27:39.418Z,84.70
2018-06-16T01:30:08.335Z,84.50
2018-06-16T01:32:37.261Z,85.70
2018-06-16T01:35:06.184Z,86.10
2018-06-16T01:37:35.062Z,86.00
2018-06-16T01:40:04.047Z,86.00
2018-06-16T01:42:32.923Z,85.60
2018-06-16T01:45:01.916Z,86.00
2018-06-16T01:47:30.826Z,85.90
2018-06-16T01:49:59.726Z,85.90
2018-06-16T01:52:28.629Z,86.60
2018-06-16T01:54:57.558Z,85.80
2018-06-16T01:57:26.438Z,86.10
2018-06-16T01:59:55.330Z,86.80
2018-06-16T02:02:24.208Z,86.50
2018-06-16T02:04:53.093Z,86.90
2018-06-16T02:07:21.985Z,86.80
2018-06-16T02:09:50.877Z,89.30
2018-06-16T02:12:19.810Z,88.90
2018-06-16T02:14:48.694Z,89.30
2018-06-16T02:17:17.664Z,90.30
2018-06-16T02:19:46.561Z,90.00
2018-06-16T02:22:15.444Z,89.50
2018-06-16T02:24:44.326Z,90.30
2018-06-16T02:27:13.216Z,89.70
2018-06-16T02:29:42.119Z,89.20
2018-06-16T02:32:11.001Z,88.70
2018-06-16T02:34:39.922Z,88.80
2018-06-16T02:37:08.827Z,88.80
2018-06-16T02:39:37.742Z,89.80
2018-06-16T02:42:06.714Z,90.60
2018-06-16T02:44:35.623Z,91.60
2018-06-16T02:47:04.518Z,91.70
2018-06-16T02:49:33.406Z,91.60
2018-06-16T02:52:02.386Z,91.40
2018-06-16T02:54:31.295Z,91.30
2018-06-16T02:57:00.184Z,91.60
2018-06-16T02:59:29.082Z,91.60
2018-06-16T03:01:57.964Z,91.90
2018-06-16T03:04:26.950Z,92.50
2018-06-16T03:06:55.862Z,92.50
2018-06-16T03:09:24.744Z,92.70
2018-06-16T03:11:53.756Z,92.40
2018-06-16T03:14:22.634Z,92.10
2018-06-16T03:16:51.515Z,92.10
2018-06-16T03:19:20.419Z,91.60
2018-06-16T03:21:49.286Z,92.20
2018-06-16T03:24:18.174Z,92.30
2018-06-16T03:26:47.118Z,92.20
2018-06-16T03:29:15.998Z,92.00
2018-06-16T03:31:44.890Z,91.90
2018-06-16T03:34:13.790Z,91.90
2018-06-16T03:36:42.678Z,91.80
2018-06-16T03:39:11.597Z,92.50
2018-06-16T03:41:40.516Z,92.90
2018-06-16T03:44:09.447Z,93.00
2018-06-16T03:46:38.397Z,92.80
2018-06-16T03:49:07.730Z,92.90
2018-06-16T03:51:36.638Z,92.80
2018-06-16T03:54:05.806Z,92.80
2018-06-16T03:56:34.691Z,93.00
2018-06-16T03:59:04.281Z,93.00
2018-06-16T04:01:33.251Z,93.20
2018-06-16T04:04:02.118Z,93.00
2018-06-16T04:06:31.011Z,92.80
2018-06-16T04:08:59.915Z,92.80
2018-06-16T04:11:28.790Z,92.30
2018-06-16T04:13:57.674Z,92.40
2018-06-16T04:16:26.570Z,92.40
2018-06-16T04:18:55.443Z,92.60
2018-06-16T04:21:24.334Z,92.40
2018-06-16T04:23:53.213Z,92.30
2018-06-16T04:26:22.108Z,92.60
2018-06-16T04:28:50.988Z,92.40
2018-06-16T04:31:19.870Z,92.10
2018-06-16T04:33:48.742Z,91.70
2018-06-16T04:36:17.634Z,91.40
2018-06-16T04:38:46.500Z,90.90
2018-06-16T04:41:15.396Z,90.90
2018-06-16T04:43:44.263Z,90.80
2018-06-16T04:46:13.191Z,90.50
2018-06-16T04:48:42.075Z,90.30
2018-06-16T04:51:10.998Z,90.30
2018-06-16T04:53:39.950Z,90.00
2018-06-16T04:56:08.886Z,88.10
2018-06-16T04:58:37.847Z,87.90
2018-06-16T05:01:06.775Z,86.00
2018-06-16T05:03:35.703Z,84.70
2018-06-16T05:06:04.612Z,84.50
2018-06-16T05:08:33.643Z,84.20
2018-06-16T05:11:02.459Z,83.60
2018-06-16T05:13:32.202Z,83.40
2018-06-16T05:16:01.093Z,83.20
2018-06-16T05:18:29.971Z,81.30
2018-06-16T05:20:58.866Z,80.90
2018-06-16T05:23:27.866Z,81.20
2018-06-16T05:25:56.750Z,80.30
2018-06-16T05:28:25.633Z,80.10
2018-06-16T05:30:54.560Z,79.40
2018-06-16T05:33:23.434Z,80.20
2018-06-16T05:35:52.341Z,78.10
2018-06-16T05:38:21.322Z,78.00
2018-06-16T05:40:50.188Z,76.50
2018-06-16T05:43:19.070Z,76.70
2018-06-16T05:45:47.966Z,75.30
2018-06-16T05:48:16.850Z,74.90
2018-06-16T05:50:45.746Z,75.10
2018-06-16T05:53:14.627Z,73.60
2018-06-16T05:55:43.519Z,73.40
2018-06-16T05:58:12.446Z,72.10
2018-06-16T06:00:41.387Z,72.30
2018-06-16T06:03:10.287Z,72.60
2018-06-16T06:05:39.203Z,70.80
2018-06-16T06:08:08.106Z,67.30
2018-06-16T06:10:37.105Z,67.10
2018-06-16T06:13:06.007Z,65.00
2018-06-16T06:15:34.923Z,66.10
2018-06-16T06:18:03.836Z,65.80
2018-06-16T06:23:01.256Z,66.90
2018-06-16T06:27:58.908Z,64.00
2018-06-16T06:30:27.790Z,63.00
2018-06-16T06:32:56.708Z,64.10
2018-06-16T06:35:25.629Z,63.10
2018-06-16T06:37:54.527Z,61.30
2018-06-16T06:40:23.417Z,62.50
2018-06-16T06:42:52.326Z,63.10
2018-06-16T06:45:21.207Z,61.70
2018-06-16T06:47:50.130Z,60.80
2018-06-16T06:50:19.012Z,59.30
2018-06-16T06:52:47.903Z,58.60
2018-06-16T06:55:16.939Z,57.40
2018-06-16T06:57:45.830Z,57.80
2018-06-16T07:00:14.723Z,57.50
2018-06-16T07:02:43.611Z,58.60
2018-06-16T07:05:12.494Z,56.10
2018-06-16T07:07:41.397Z,56.20
2018-06-16T07:12:38.863Z,55.70
2018-06-16T07:15:07.764Z,53.90
2018-06-16T07:17:36.802Z,54.10
2018-06-16T07:20:05.749Z,54.70
2018-06-16T07:22:34.738Z,52.60
2018-06-16T07:25:03.696Z,53.70
2018-06-16T07:27:32.671Z,52.20
2018-06-16T07:30:17.078Z,49.90
2018-06-16T07:32:46.268Z,52.60
2018-06-16T07:35:15.140Z,49.90
2018-06-16T07:37:44.033Z,49.40
2018-06-16T07:40:13.454Z,46.00
2018-06-16T07:42:42.398Z,46.10
2018-06-16T07:45:11.383Z,44.60
2018-06-16T07:47:40.318Z,42.90
2018-06-16T07:50:09.366Z,42.80
2018-06-16T07:52:38.414Z,44.40
2018-06-16T07:55:07.794Z,41.90
2018-06-16T08:02:33.828Z,42.10
2018-06-16T08:05:02.719Z,40.80
2018-06-16T08:07:31.626Z,39.90
2018-06-16T08:10:00.532Z,39.70
2018-06-16T08:12:29.535Z,39.00
2018-06-16T08:14:58.746Z,40.10
2018-06-16T08:17:27.637Z,39.40
2018-06-16T08:19:57.194Z,38.70
2018-06-16T08:22:26.119Z,39.30
2018-06-16T08:24:55.186Z,38.80
2018-06-16T08:27:25.035Z,38.00
2018-06-16T08:29:53.975Z,38.20
2018-06-16T08:32:22.914Z,36.60
2018-06-16T08:34:51.916Z,35.90
2018-06-16T08:37:21.171Z,33.80
2018-06-16T08:39:50.046Z,36.30
2018-06-16T08:42:19.096Z,34.90
2018-06-16T08:44:48.064Z,36.00
2018-06-16T08:47:17.394Z,35.80
2018-06-16T08:49:46.275Z,37.00
2018-06-16T08:52:15.441Z,36.70
2018-06-16T08:54:44.390Z,35.40
2018-06-16T08:57:13.282Z,33.60
2018-06-16T08:59:42.588Z,32.00
2018-06-16T09:02:11.644Z,32.20
2018-06-16T09:04:40.755Z,34.20
2018-06-16T09:07:09.677Z,30.00
2018-06-16T09:09:38.871Z,30.00
2018-06-16T09:12:09.209Z,30.50
2018-06-16T09:14:38.385Z,30.00
2018-06-16T09:17:07.479Z,28.30
2018-06-16T09:19:37.006Z,28.40
2018-06-16T09:22:06.372Z,27.60
2018-06-16T09:24:35.334Z,29.80
2018-06-16T09:29:45.927Z,30.30
2018-06-16T09:34:43.313Z,31.40
2018-06-16T09:37:12.375Z,31.50
2018-06-16T09:39:41.406Z,29.80
2018-06-16T09:42:10.460Z,29.90
2018-06-16T09:44:39.383Z,30.00
2018-06-16T09:47:08.363Z,30.10
2018-06-16T09:52:05.834Z,30.20
2018-06-16T09:54:34.738Z,30.60
2018-06-16T09:57:03.700Z,30.30
2018-06-16T09:59:32.614Z,31.60
2018-06-16T10:02:01.511Z,30.20
2018-06-16T10:04:30.426Z,30.30
2018-06-16T10:06:59.338Z,30.20
2018-06-16T10:09:28.256Z,31.90
2018-06-16T10:11:57.111Z,32.90
2018-06-16T10:14:26.081Z,30.30
2018-06-16T10:16:55.066Z,33.00
2018-06-16T10:19:23.983Z,31.40
2018-06-16T10:21:52.961Z,30.10
2018-06-16T10:24:21.843Z,30.20
2018-06-16T10:26:50.802Z,30.20
2018-06-16T10:29:19.683Z,29.70
2018-06-16T10:31:48.580Z,32.20
2018-06-16T10:34:17.475Z,30.60
2018-06-16T10:36:46.364Z,31.00
2018-06-16T10:39:15.263Z,30.70
2018-06-16T10:41:44.251Z,28.70
2018-06-16T10:44:13.139Z,30.00
2018-06-16T10:46:42.035Z,28.60
2018-06-16T10:49:10.968Z,30.00
2018-06-16T10:51:39.920Z,30.80
2018-06-16T10:54:08.822Z,28.80
2018-06-16T10:56:37.707Z,30.10
2018-06-16T10:59:06.629Z,29.90
2018-06-16T11:01:35.730Z,28.60
2018-06-16T11:04:04.694Z,28.00
2018-06-16T11:06:35.403Z,25.60
2018-06-16T11:09:06.329Z,28.00
2018-06-16T11:11:35.526Z,27.10
2018-06-16T11:14:04.515Z,30.00
2018-06-16T11:16:33.437Z,27.00
2018-06-16T11:19:02.310Z,28.80
2018-06-16T11:21:31.176Z,28.00
2018-06-16T11:24:00.079Z,27.20
2018-06-16T11:26:28.957Z,28.50
2018-06-16T11:28:57.859Z,27.30
2018-06-16T11:31:26.734Z,28.40
2018-06-16T11:33:55.625Z,28.20
2018-06-16T11:36:24.498Z,27.70
2018-06-16T11:38:53.383Z,27.80
2018-06-16T11:41:22.258Z,26.50
2018-06-16T11:43:51.186Z,26.30
2018-06-16T11:46:20.067Z,25.60
2018-06-16T11:48:48.993Z,27.00
2018-06-16T11:51:17.859Z,25.70
2018-06-16T11:53:47.494Z,27.40
2018-06-16T11:56:17.270Z,26.90
2018-06-16T11:58:46.455Z,27.70
2018-06-16T12:01:15.427Z,26.60
2018-06-16T12:03:45.067Z,25.80
2018-06-16T12:06:14.515Z,26.40
2018-06-16T12:08:43.460Z,25.10
2018-06-16T12:11:12.527Z,27.20
2018-06-16T12:13:41.501Z,24.50
2018-06-16T12:16:10.683Z,27.50
2018-06-16T12:18:39.621Z,24.20
2018-06-16T12:21:08.526Z,28.20
2018-06-16T12:23:37.920Z,24.60
2018-06-16T12:26:07.145Z,24.10
2018-06-16T12:28:36.113Z,23.00
2018-06-16T12:31:05.063Z,25.80
2018-06-16T12:33:35.098Z,23.00
2018-06-16T12:36:05.066Z,24.30
2018-06-16T12:38:35.362Z,23.40
2018-06-16T12:41:05.211Z,24.40
2018-06-16T12:43:34.103Z,25.00
2018-06-16T12:46:05.967Z,23.10
2018-06-16T12:48:35.315Z,22.80
2018-06-16T12:51:04.544Z,24.10
2018-06-16T12:53:33.533Z,24.30
2018-06-16T12:56:02.664Z,24.10
2018-06-16T13:01:01.079Z,23.30
2018-06-16T13:03:30.139Z,23.10
2018-06-16T13:05:59.208Z,21.40
2018-06-16T13:08:28.150Z,22.60
2018-06-16T13:10:57.143Z,24.50
2018-06-16T13:13:26.032Z,23.70
2018-06-16T13:15:54.902Z,23.10
2018-06-16T13:20:52.343Z,23.40
2018-06-16T13:23:21.215Z,25.00
2018-06-16T13:25:50.122Z,23.50
2018-06-16T13:28:19.034Z,21.50
2018-06-16T13:30:47.994Z,22.40
2018-06-16T13:33:16.880Z,23.80
2018-06-16T13:35:45.811Z,21.30
2018-06-16T13:38:14.715Z,22.40
2018-06-16T13:40:43.610Z,22.50
2018-06-16T13:43:12.547Z,21.80
2018-06-16T13:45:41.491Z,21.80
2018-06-16T13:48:10.526Z,22.20
2018-06-16T13:50:39.490Z,22.50
2018-06-16T13:53:08.398Z,23.80
2018-06-16T13:55:37.386Z,23.30
2018-06-16T13:58:06.360Z,23.40
2018-06-16T14:00:35.254Z,24.50
2018-06-16T14:03:05.300Z,24.50
2018-06-16T14:05:34.230Z,23.60
2018-06-16T14:08:03.154Z,22.30
2018-06-16T14:10:32.051Z,24.10
2018-06-16T14:13:02.028Z,25.10
2018-06-16T14:15:30.914Z,24.30
2018-06-16T14:17:59.831Z,25.00
2018-06-16T14:20:28.670Z,23.90
2018-06-16T14:22:57.606Z,25.30
2018-06-16T14:25:26.487Z,23.10
2018-06-16T14:27:55.535Z,24.20
2018-06-16T14:30:24.410Z,23.30
2018-06-16T14:32:53.307Z,24.10
2018-06-16T14:35:22.185Z,22.70
2018-06-16T14:37:51.345Z,24.10
2018-06-16T14:40:20.374Z,24.80
2018-06-16T14:42:49.374Z,23.70
2018-06-16T14:45:18.262Z,22.70
2018-06-16T14:47:47.394Z,24.10
2018-06-16T14:50:16.263Z,23.70
2018-06-16T14:52:45.183Z,24.20
2018-06-16T14:55:14.086Z,24.90
2018-06-16T14:57:42.982Z,23.10
2018-06-16T15:00:11.890Z,23.70
2018-06-16T15:02:40.831Z,24.60
2018-06-16T15:05:09.767Z,23.60
2018-06-16T15:07:38.658Z,22.60
2018-06-16T15:10:07.638Z,25.30
2018-06-16T15:12:52.399Z,23.80
2018-06-16T15:15:22.500Z,24.40
2018-06-16T15:17:51.387Z,24.50
2018-06-16T15:20:20.268Z,22.30
2018-06-16T15:22:49.194Z,24.00
2018-06-16T15:25:18.066Z,25.50
2018-06-16T15:27:47.503Z,24.00
2018-06-16T15:30:16.374Z,24.00
2018-06-16T15:32:47.293Z,24.50
2018-06-16T15:35:16.675Z,26.70
2018-06-16T15:37:45.571Z,25.40
2018-06-16T15:40:14.446Z,24.00
2018-06-16T15:42:43.366Z,26.30
2018-06-16T15:45:12.331Z,25.70
2018-06-16T15:47:41.218Z,26.50
2018-06-16T15:50:10.187Z,25.70
2018-06-16T15:52:39.110Z,23.70
2018-06-16T15:55:08.210Z,23.70
2018-06-16T15:57:37.228Z,25.00
2018-06-16T16:02:34.912Z,23.50
2018-06-16T16:05:04.468Z,24.10
2018-06-16T16:07:33.486Z,23.10
2018-06-16T16:10:02.425Z,25.90
2018-06-16T16:12:31.309Z,23.50
2018-06-16T16:15:00.343Z,23.50
2018-06-16T16:17:29.251Z,23.70
2018-06-16T16:19:58.154Z,23.60
2018-06-16T16:22:27.024Z,23.70
2018-06-16T16:24:55.933Z,23.70
2018-06-16T16:27:25.070Z,23.60
2018-06-16T16:29:54.018Z,23.50
2018-06-16T16:32:22.914Z,23.60
2018-06-16T16:34:51.807Z,23.60
2018-06-16T16:37:20.678Z,23.60
2018-06-16T16:39:49.566Z,23.60
2018-06-16T16:42:18.607Z,24.70
2018-06-16T16:44:47.490Z,23.60
2018-06-16T16:47:16.419Z,25.20
2018-06-16T16:49:45.302Z,23.60
2018-06-16T16:52:14.291Z,24.30
2018-06-16T16:54:43.245Z,23.60
2018-06-16T16:57:12.130Z,23.60
2018-06-16T16:59:41.117Z,24.30
2018-06-16T17:02:11.116Z,24.30
2018-06-16T17:04:40.048Z,24.90
2018-06-16T17:07:09.038Z,25.90
2018-06-16T17:09:38.044Z,25.30
2018-06-16T17:12:06.975Z,25.40
2018-06-16T17:14:35.866Z,25.80
2018-06-16T17:17:04.775Z,26.40
2018-06-16T17:19:33.767Z,27.00
2018-06-16T17:22:02.652Z,28.90
2018-06-16T17:24:31.649Z,27.10
2018-06-16T17:27:00.998Z,27.60
2018-06-16T17:29:30.986Z,28.00
2018-06-16T17:31:59.870Z,28.40
2018-06-16T17:34:28.754Z,27.90
2018-06-16T17:36:57.644Z,27.90
2018-06-16T17:39:27.069Z,28.50
2018-06-16T17:41:55.974Z,27.90
2018-06-16T17:44:24.925Z,27.90
2018-06-16T17:46:53.813Z,27.50
2018-06-16T17:49:22.721Z,28.40
2018-06-16T17:54:20.141Z,29.50
2018-06-16T17:56:49.022Z,30.50
2018-06-16T17:59:17.911Z,28.70
2018-06-16T18:01:46.841Z,28.90
2018-06-16T18:04:16.026Z,31.80
2018-06-16T18:06:45.541Z,30.00
2018-06-16T18:09:14.565Z,29.50
2018-06-16T18:11:43.499Z,28.80
2018-06-16T18:14:13.201Z,28.90
2018-06-16T18:16:42.462Z,28.70
2018-06-16T18:19:11.659Z,30.30
2018-06-16T18:21:40.693Z,29.70
2018-06-16T18:24:09.644Z,30.00
2018-06-16T18:26:38.974Z,29.70
2018-06-16T18:29:07.982Z,30.00
2018-06-16T18:31:37.263Z,30.10
2018-06-16T18:34:06.263Z,30.60
2018-06-16T18:39:08.338Z,30.70
2018-06-16T18:41:37.338Z,31.50
2018-06-16T18:44:06.334Z,32.00
2018-06-16T18:46:35.839Z,31.90
2018-06-16T18:49:04.774Z,32.10
2018-06-16T18:51:33.666Z,32.50
2018-06-16T18:54:02.753Z,32.60
2018-06-16T18:56:31.758Z,32.30
2018-06-16T18:59:00.742Z,33.20
2018-06-16T19:01:29.662Z,33.20
2018-06-16T19:04:06.697Z,33.80
2018-06-16T19:06:35.776Z,32.30
2018-06-16T19:09:07.693Z,32.20
2018-06-16T19:11:36.594Z,32.20
2018-06-16T19:14:05.534Z,34.00
2018-06-16T19:16:34.891Z,31.70
2018-06-16T19:19:03.910Z,33.20
2018-06-16T19:21:32.779Z,32.50
2018-06-16T19:24:01.663Z,32.40
2018-06-16T19:26:30.549Z,33.30
2018-06-16T19:28:59.459Z,33.00
2018-06-16T19:31:28.362Z,34.00
2018-06-16T19:33:57.232Z,34.40
2018-06-16T19:36:26.143Z,34.20
2018-06-16T19:38:55.010Z,35.00
2018-06-16T19:41:23.942Z,34.50
2018-06-16T19:43:52.820Z,33.80
2018-06-16T19:46:21.947Z,34.90
2018-06-16T19:48:50.965Z,34.60
2018-06-16T19:51:20.659Z,35.80
2018-06-16T19:53:49.536Z,35.60
2018-06-16T19:56:18.475Z,35.80
2018-06-16T19:58:47.373Z,36.10
2018-06-16T20:01:16.300Z,36.50
2018-06-16T20:03:45.183Z,36.70
2018-06-16T20:06:14.102Z,36.80
2018-06-16T20:08:42.990Z,36.80
2018-06-16T20:11:12.106Z,37.80
2018-06-16T20:13:41.135Z,37.70
2018-06-16T20:16:11.151Z,38.20
2018-06-16T20:18:40.055Z,37.10
2018-06-16T20:21:08.966Z,38.20
2018-06-16T20:23:37.900Z,38.00
2018-06-16T20:26:06.818Z,38.00
2018-06-16T20:28:35.729Z,37.90
2018-06-16T20:31:04.699Z,39.10
2018-06-16T20:33:33.610Z,39.50
2018-06-16T20:36:02.544Z,39.30
2018-06-16T20:38:31.435Z,39.70
2018-06-16T20:41:00.302Z,39.90
2018-06-16T20:43:29.227Z,40.20
2018-06-16T20:48:26.616Z,40.90
2018-06-16T20:50:55.560Z,41.30
2018-06-16T20:53:24.582Z,42.10
2018-06-16T20:55:53.480Z,42.00
2018-06-16T20:58:22.395Z,42.30
2018-06-16T21:00:51.305Z,42.80
2018-06-16T21:03:20.191Z,42.90
2018-06-16T21:05:49.090Z,43.40
2018-06-16T21:08:17.982Z,44.00
2018-06-16T21:10:46.948Z,44.50
2018-06-16T21:13:15.834Z,44.60
2018-06-16T21:15:44.751Z,45.00
2018-06-16T21:18:13.666Z,44.70
2018-06-16T21:23:11.084Z,46.20
2018-06-16T21:25:40.119Z,46.10
2018-06-16T21:28:09.061Z,46.60
2018-06-16T21:30:37.951Z,46.60
2018-06-16T21:33:06.918Z,46.20
2018-06-16T21:35:35.827Z,46.40
2018-06-16T21:38:04.789Z,46.40
2018-06-16T21:40:33.674Z,47.30
2018-06-16T21:43:02.577Z,47.70
2018-06-16T21:45:31.543Z,47.90
2018-06-16T21:48:00.535Z,48.30
2018-06-16T21:50:29.650Z,48.80
2018-06-16T21:52:58.535Z,49.10
2018-06-16T21:55:27.439Z,49.70
2018-06-16T21:57:56.350Z,50.10
2018-06-16T22:00:29.465Z,50.30
2018-06-16T22:02:58.419Z,50.40
2018-06-16T22:05:27.342Z,50.70
2018-06-16T22:08:00.723Z,51.90
2018-06-16T22:10:29.756Z,52.00
2018-06-16T22:12:58.668Z,52.00
2018-06-16T22:15:27.547Z,52.10
2018-06-16T22:17:56.467Z,52.30
2018-06-16T22:20:25.547Z,52.90
2018-06-16T22:22:54.463Z,54.00
2018-06-16T22:25:23.390Z,54.30
2018-06-16T22:27:52.302Z,54.80
2018-06-16T22:30:21.193Z,56.10
2018-06-16T22:32:50.127Z,56.30
2018-06-16T22:35:19.021Z,56.70
2018-06-16T22:37:47.930Z,57.40
2018-06-16T22:40:16.819Z,57.70
2018-06-16T22:42:45.742Z,58.10
2018-06-16T22:45:14.617Z,61.20
2018-06-16T22:47:43.548Z,63.10
2018-06-16T22:50:12.515Z,65.20
2018-06-16T22:52:41.439Z,66.30
2018-06-16T22:55:10.427Z,65.30
2018-06-16T22:57:39.374Z,66.60
2018-06-16T23:00:08.334Z,68.70
2018-06-16T23:02:37.251Z,69.30
2018-06-16T23:05:06.324Z,68.60
2018-06-16T23:07:35.774Z,69.80
2018-06-16T23:10:04.707Z,69.30
2018-06-16T23:12:33.597Z,69.00
2018-06-16T23:15:02.479Z,68.20
2018-06-16T23:17:31.386Z,67.40
2018-06-16T23:20:00.273Z,67.20
2018-06-16T23:22:29.195Z,66.90
2018-06-16T23:24:58.138Z,68.20
2018-06-16T23:27:27.023Z,70.10
2018-06-16T23:29:55.907Z,71.10
2018-06-16T23:32:24.828Z,71.10
2018-06-16T23:34:53.718Z,70.90
2018-06-16T23:37:22.618Z,70.10
2018-06-16T23:39:51.500Z,70.40
2018-06-16T23:42:20.402Z,70.20
2018-06-16T23:44:49.387Z,70.40
2018-06-16T23:47:18.326Z,70.80
2018-06-16T23:49:47.279Z,71.60
2018-06-16T23:52:16.192Z,72.20
2018-06-16T23:54:45.087Z,74.70
2018-06-16T23:57:14.013Z,74.30
2018-06-16T23:59:42.927Z,74.20
